Time;durP1;ratioP1;P1;durP2;ratioP2;P2;SDS_P1;SDS_P2;PMS_P1;PMS_P2;Temp;Humidity;BMP_temperature;BMP_pressure;BME280_temperature;BME280_humidity;BME280_pressure;Samples;Min_cycle;Max_cycle;Signal;HPM_P1;HPM_P2
2024/04/21 00:06:42;;;;;;;4.68;3.38;;;;;;;5.86;72.62;98793.50;4997974;28;20020;-94
2024/04/21 00:09:33;;;;;;;5.82;3.55;;;;;;;5.84;72.41;98787.63;4937218;29;20002;-95
2024/04/21 00:19:56;;;;;;;;;;;;;;;;;;;;;
2024/04/21 00:23:23;;;;;;;4.97;3.38;;;;;;;5.83;72.35;98777.16;4849704;29;20004;-93
2024/04/21 00:26:05;;;;;;;4.70;3.33;;;;;;;5.86;72.28;98788.16;4743437;30;20010;-96
2024/04/21 00:29:28;;;;;;;6.45;3.25;;;;;;;5.91;71.67;98791.94;4760861;29;20026;-95
2024/04/21 00:32:17;;;;;;;4.53;2.90;;;;;;;6.05;70.92;98790.53;4794556;30;20092;-94
2024/04/21 00:35:21;;;;;;;4.35;3.60;;;;;;;6.17;70.77;98795.72;4790400;29;20014;-96
2024/04/21 00:37:50;;;;;;;5.10;3.35;;;;;;;6.22;70.56;98793.88;4841865;29;20021;-96
2024/04/21 00:40:15;;;;;;;5.15;3.42;;;;;;;6.34;70.49;98798.25;4799287;29;20062;-96
2024/04/21 00:42:41;;;;;;;5.88;3.30;;;;;;;6.50;70.12;98820.59;4856000;29;20012;-96
2024/04/21 00:45:10;;;;;;;4.97;3.50;;;;;;;6.52;69.73;98791.72;4887988;29;20012;-96
2024/04/21 00:47:37;;;;;;;7.22;3.40;;;;;;;6.67;69.06;98810.56;4887893;29;19998;-95
2024/04/21 00:50:03;;;;;;;5.75;3.20;;;;;;;6.59;69.23;98805.69;4887402;29;20042;-95
2024/04/21 00:52:39;;;;;;;;;;;;;;;;;;;;;
2024/04/21 00:55:15;;;;;;;4.75;3.35;;;;;;;6.85;68.23;98830.75;4949000;28;20002;-95
2024/04/21 00:57:40;;;;;;;6.18;3.28;;;;;;;6.74;68.34;98813.81;4947646;28;20071;-96
2024/04/21 01:00:17;;;;;;;6.20;3.20;;;;;;;6.72;67.90;98799.88;5015615;28;20003;-96
2024/04/21 01:02:43;;;;;;;4.85;3.40;;;;;;;6.73;67.55;98801.50;5039424;28;20502;-96
2024/04/21 01:05:12;;;;;;;3.97;2.85;;;;;;;6.63;67.72;98799.56;5036731;28;20003;-96
2024/04/21 01:07:40;;;;;;;5.95;3.22;;;;;;;6.62;67.52;98792.59;5064036;28;20059;-96
2024/04/21 01:10:10;;;;;;;3.53;2.90;;;;;;;6.79;67.47;98807.69;5035649;28;20029;-96
2024/04/21 01:12:48;;;;;;;4.25;3.20;;;;;;;6.64;67.33;98787.81;5051644;28;20009;-96
2024/04/21 01:15:19;;;;;;;5.13;3.38;;;;;;;6.75;67.80;98795.91;5069944;28;20002;-95
2024/04/21 01:17:50;;;;;;;6.40;3.40;;;;;;;6.68;68.91;98793.44;5071110;28;20025;-96
2024/04/21 01:20:16;;;;;;;4.20;2.83;;;;;;;6.72;68.49;98809.78;5072362;28;19998;-96
2024/04/21 01:22:51;;;;;;;4.10;3.13;;;;;;;6.72;68.57;98797.19;5095135;28;20297;-96
2024/04/21 01:25:20;;;;;;;5.63;3.20;;;;;;;6.78;68.39;98798.84;5071203;28;20014;-96
2024/04/21 01:27:58;;;;;;;;;;;;;;;;;;;;;
2024/04/21 01:30:26;;;;;;;5.57;3.50;;;;;;;6.76;69.70;98818.91;5097254;28;20103;-96
2024/04/21 01:32:52;;;;;;;5.13;3.92;;;;;;;6.67;69.94;98808.69;5069383;28;20010;-95
2024/04/21 01:35:17;;;;;;;9.05;3.92;;;;;;;6.72;70.26;98817.81;5094115;28;20030;-95
2024/04/21 01:37:43;;;;;;;4.15;3.47;;;;;;;6.68;70.05;98814.81;5067775;28;20001;-95
2024/04/21 01:40:12;;;;;;;5.22;3.80;;;;;;;6.57;70.12;98808.59;5093635;28;20001;-96
2024/04/21 01:42:42;;;;;;;5.88;3.60;;;;;;;6.60;70.06;98808.09;5070718;28;20030;-95
2024/04/21 01:45:08;;;;;;;22.77;14.52;;;;;;;6.60;69.46;98800.09;5070540;28;20386;-94
2024/04/21 01:47:33;;;;;;;5.05;3.80;;;;;;;6.59;70.36;98803.00;5068161;28;20006;-95
2024/04/21 01:49:59;;;;;;;5.85;3.38;;;;;;;6.54;70.50;98797.63;5094163;28;20001;-94
2024/04/21 01:52:25;;;;;;;4.60;3.50;;;;;;;6.56;70.57;98801.66;5069640;28;20013;-95
2024/04/21 01:54:50;;;;;;;5.18;3.80;;;;;;;6.59;69.87;98785.06;5069078;28;20082;-95
2024/04/21 01:57:16;;;;;;;5.75;3.53;;;;;;;6.65;70.04;98797.44;5068938;28;20018;-93
2024/04/21 01:59:44;;;;;;;6.78;3.58;;;;;;;6.58;70.57;98788.84;5068084;28;20002;-94
2024/04/21 02:02:09;;;;;;;6.07;3.65;;;;;;;6.62;70.34;98803.31;5068387;28;20009;-96
2024/04/21 02:04:35;;;;;;;6.35;3.83;;;;;;;6.61;70.24;98793.66;5094581;28;20069;-93
2024/04/21 02:07:01;;;;;;;5.35;4.00;;;;;;;6.68;70.35;98815.66;5068816;28;20441;-96
2024/04/21 02:09:27;;;;;;;7.13;3.88;;;;;;;6.79;69.85;98807.69;5093867;28;19998;-95
2024/04/21 02:11:52;;;;;;;6.05;4.00;;;;;;;6.81;70.05;98822.44;5067727;28;20013;-96
2024/04/21 02:14:18;;;;;;;5.47;3.63;;;;;;;6.66;70.45;98799.06;5067943;28;20006;-93
2024/04/21 02:16:44;;;;;;;5.63;3.72;;;;;;;6.74;70.70;98808.44;5094727;28;20006;-93
2024/04/21 02:22:44;;;;;;;6.47;3.47;;;;;;;6.89;69.75;98813.13;5122646;28;20035;-94
2024/04/21 02:25:10;;;;;;;5.40;3.83;;;;;;;6.90;69.97;98814.72;5068439;28;20006;-94
2024/04/21 02:27:36;;;;;;;5.82;2.92;;;;;;;6.96;69.60;98804.88;5070968;28;20002;-94
2024/04/21 02:30:01;;;;;;;5.32;3.20;;;;;;;6.97;69.57;98803.78;5069024;28;19998;-95
2024/04/21 02:32:30;;;;;;;5.63;3.47;;;;;;;7.01;70.01;98813.72;5068047;28;20001;-95
2024/04/21 02:34:57;;;;;;;5.07;3.30;;;;;;;7.05;70.36;98824.72;5043941;28;19994;-96
2024/04/21 02:37:22;;;;;;;3.85;3.10;;;;;;;7.09;70.29;98831.16;5069872;28;20012;-95
2024/04/21 02:39:48;;;;;;;5.93;3.60;;;;;;;6.97;70.53;98811.81;5042677;28;19998;-95
2024/04/21 02:42:14;;;;;;;6.90;3.08;;;;;;;6.90;70.20;98801.34;5041645;28;20013;-94
2024/04/21 02:44:40;;;;;;;3.45;3.13;;;;;;;6.90;70.62;98806.69;5092658;28;20020;-95
2024/04/21 02:47:06;;;;;;;6.85;3.88;;;;;;;6.90;70.60;98813.91;5067566;28;20005;-94
2024/04/21 02:49:34;;;;;;;6.78;3.40;;;;;;;7.04;70.52;98823.91;5068563;28;20472;-94
2024/04/21 02:52:00;;;;;;;6.55;3.90;;;;;;;6.89;70.63;98799.75;5068403;28;19998;-94
2024/04/21 02:54:26;;;;;;;6.10;3.80;;;;;;;7.04;70.77;98807.84;5067609;28;20493;-96
2024/04/21 02:56:52;;;;;;;5.85;3.30;;;;;;;7.00;70.12;98788.03;5067409;28;20006;-95
2024/04/21 02:59:18;;;;;;;6.18;3.30;;;;;;;7.11;70.56;98815.66;5067329;28;19998;-95
2024/04/21 03:01:46;;;;;;;5.45;3.25;;;;;;;7.11;70.35;98818.31;5066975;28;20002;-95
2024/04/21 03:04:11;;;;;;;8.75;3.63;;;;;;;7.06;69.69;98797.69;5067364;28;20100;-95
2024/04/21 03:06:37;;;;;;;45.50;7.20;;;;;;;7.18;68.37;98796.66;5068379;28;20017;-96
2024/04/21 03:09:03;;;;;;;4.13;2.80;;;;;;;7.22;66.39;98792.41;5067765;28;20002;-96
2024/04/21 03:11:29;;;;;;;7.32;3.30;;;;;;;7.30;65.52;98789.22;5067822;28;19998;-95
2024/04/21 03:13:58;;;;;;;6.22;2.70;;;;;;;7.47;66.00;98813.97;5067124;28;19993;-94
2024/04/21 03:16:24;;;;;;;5.78;2.58;;;;;;;7.47;66.00;98813.97;5070164;28;20017;-95
2024/04/21 03:18:49;;;;;;;6.90;3.13;;;;;;;7.55;65.51;98822.53;5067731;28;20329;-95
2024/04/21 03:21:15;;;;;;;4.13;2.72;;;;;;;7.53;65.03;98816.66;5068203;28;20002;-96
2024/04/21 03:23:41;;;;;;;6.70;2.90;;;;;;;7.20;65.26;98779.31;5068519;28;20009;-96
2024/04/21 03:26:06;;;;;;;4.95;2.67;;;;;;;7.19;65.37;98785.72;5067917;28;20425;-95
2024/04/21 03:28:32;;;;;;;3.15;2.35;;;;;;;7.13;66.13;98791.31;5065818;28;20002;-93
2024/04/21 03:30:59;;;;;;;3.47;2.85;;;;;;;6.98;66.59;98792.81;5092982;28;20006;-94
2024/04/21 03:33:24;;;;;;;2.95;2.35;;;;;;;6.99;66.79;98801.66;5065051;28;20014;-94
2024/04/21 03:36:03;;;;;;;3.83;2.78;;;;;;;7.01;66.47;98802.19;5066882;28;19998;-94
2024/04/21 03:38:29;;;;;;;4.90;2.70;;;;;;;6.79;67.15;98775.59;5067060;28;19998;-94
2024/04/21 03:40:55;;;;;;;3.97;2.60;;;;;;;6.69;67.32;98768.31;5067247;28;19998;-94
2024/04/21 03:43:23;;;;;;;3.92;2.42;;;;;;;6.90;66.99;98797.88;5071131;28;19998;-95
2024/04/21 03:45:51;;;;;;;6.28;3.05;;;;;;;6.77;67.35;98783.06;5067456;28;20002;-95
2024/04/21 03:48:17;;;;;;;4.03;2.70;;;;;;;6.72;67.77;98791.84;5069518;28;20472;-95
2024/04/21 03:50:42;;;;;;;4.38;2.42;;;;;;;6.73;68.68;98798.03;5067009;28;19998;-96
2024/04/21 03:53:09;;;;;;;6.28;2.97;;;;;;;6.68;69.24;98793.44;5067566;28;19998;-94
2024/04/21 03:55:34;;;;;;;13.23;3.55;;;;;;;6.65;69.20;98789.41;5066518;28;20002;-95
2024/04/21 03:58:00;;;;;;;5.28;3.00;;;;;;;6.52;70.15;98789.84;5066962;28;20002;-95
2024/04/21 04:00:26;;;;;;;4.82;3.05;;;;;;;6.53;70.59;98791.44;5066953;28;20006;-96
2024/04/21 04:02:51;;;;;;;5.03;3.20;;;;;;;6.52;71.30;98819.28;5093182;28;20012;-95
2024/04/21 04:05:17;;;;;;;5.55;3.38;;;;;;;6.37;71.87;98803.91;5067168;28;20018;-96
2024/04/21 04:07:45;;;;;;;4.10;2.88;;;;;;;6.27;71.37;98790.47;5093898;28;20017;-96
2024/04/21 04:10:13;;;;;;;3.38;2.90;;;;;;;6.36;72.02;98814.84;5066927;28;20002;-95
2024/04/21 04:12:41;;;;;;;4.97;3.13;;;;;;;6.32;72.10;98811.88;5067487;28;20009;-94
2024/04/21 04:15:09;;;;;;;4.50;3.22;;;;;;;6.43;72.31;98832.31;5068385;28;19998;-94
2024/04/21 04:17:35;;;;;;;7.20;3.10;;;;;;;6.24;71.45;98805.13;5067837;28;19998;-94
2024/04/21 04:20:06;;;;;;;4.30;2.97;;;;;;;6.38;70.73;98810.06;5093792;28;20026;-93
2024/04/21 04:22:36;;;;;;;8.82;3.25;;;;;;;6.42;70.76;98816.50;5070308;28;20013;-94
2024/04/21 04:25:04;;;;;;;5.70;3.25;;;;;;;6.56;70.49;98809.69;5066526;28;20017;-94
2024/04/21 04:27:30;;;;;;;4.68;2.90;;;;;;;6.66;69.97;98812.44;5093375;28;20034;-96
2024/04/21 04:29:56;;;;;;;4.35;2.42;;;;;;;6.73;69.60;98812.22;5065180;28;19997;-94
2024/04/21 04:32:21;;;;;;;3.53;2.20;;;;;;;6.77;68.55;98809.84;5066084;28;20005;-95
2024/04/21 04:34:48;;;;;;;10.18;2.90;;;;;;;6.86;68.58;98803.72;5066331;28;20002;-95
2024/04/21 04:37:17;;;;;;;3.22;2.55;;;;;;;7.01;67.89;98821.75;5094057;28;20010;-95
2024/04/21 04:39:43;;;;;;;2.90;2.30;;;;;;;7.05;67.33;98806.78;5095390;28;20469;-94
2024/04/21 04:42:09;;;;;;;2.78;2.30;;;;;;;7.27;66.44;98816.53;5092898;28;20078;-95
2024/04/21 04:44:34;;;;;;;4.40;2.17;;;;;;;7.36;65.51;98806.94;5067154;28;20002;-95
2024/04/21 04:47:00;;;;;;;3.40;2.00;;;;;;;7.43;64.11;98806.72;5068598;28;20006;-95
2024/04/21 04:49:26;;;;;;;2.20;1.90;;;;;;;7.62;63.54;98813.22;5071856;28;20082;-94
2024/04/21 04:51:51;;;;;;;2.00;1.75;;;;;;;7.82;62.11;98803.59;5067523;28;20006;-94
2024/04/21 04:54:17;;;;;;;3.33;1.92;;;;;;;8.02;61.81;98797.50;5067923;28;20006;-94
2024/04/21 04:56:43;;;;;;;2.30;1.98;;;;;;;8.28;61.53;98828.63;5094668;28;20002;-96
2024/04/21 04:59:12;;;;;;;2.65;1.85;;;;;;;8.35;61.71;98814.97;5069208;28;20053;-96
2024/04/21 05:01:38;;;;;;;5.15;1.90;;;;;;;8.44;62.32;98809.88;5121139;27;20006;-94
2024/04/21 05:04:04;;;;;;;4.03;1.95;;;;;;;8.70;61.72;98826.81;5068130;28;20017;-95
2024/04/21 05:06:29;;;;;;;2.58;1.98;;;;;;;8.80;59.49;98821.44;5068844;28;19998;-94
2024/04/21 05:08:56;;;;;;;9.60;3.42;;;;;;;8.84;59.78;98800.19;5068884;28;20005;-95
2024/04/21 05:11:25;;;;;;;2.85;1.52;;;;;;;9.02;57.99;98802.31;5095562;28;20010;-95
2024/04/21 05:13:54;;;;;;;4.07;1.88;;;;;;;9.25;57.52;98827.75;5070208;28;20012;-95
2024/04/21 05:16:23;;;;;;;4.05;1.95;;;;;;;9.25;57.26;98808.16;5098989;28;20026;-96
2024/04/21 05:18:49;;;;;;;3.42;1.85;;;;;;;9.30;57.28;98800.09;5069109;28;20002;-96
2024/04/21 05:21:17;;;;;;;4.40;2.15;;;;;;;9.40;56.71;98805.44;5094862;28;20078;-95
2024/04/21 05:23:44;;;;;;;4.95;2.38;;;;;;;9.48;57.37;98818.31;5069882;28;20009;-95
2024/04/21 05:26:10;;;;;;;3.90;2.30;;;;;;;9.55;58.21;98812.63;5067716;28;20029;-95
2024/04/21 05:28:35;;;;;;;2.92;2.20;;;;;;;9.72;57.04;98814.97;5094160;28;20034;-95
2024/04/21 05:31:10;;;;;;;3.53;2.10;;;;;;;9.86;55.75;98799.03;5068599;28;20070;-94
2024/04/21 05:33:38;;;;;;;5.07;1.88;;;;;;;10.15;53.90;98801.00;5070858;28;20009;-96
2024/04/21 05:36:06;;;;;;;3.50;2.58;;;;;;;10.45;53.33;98810.78;5067335;28;20018;-94
2024/04/21 05:38:34;;;;;;;3.30;1.90;;;;;;;10.46;53.93;98820.47;5094001;28;20013;-95
2024/04/21 05:41:03;;;;;;;2.85;1.65;;;;;;;10.64;53.72;98822.44;5095828;28;20013;-96
2024/04/21 05:43:39;;;;;;;;;;;;;;;;;;;;;
2024/04/21 05:46:11;;;;;;;2.78;2.05;;;;;;;10.52;53.65;98797.78;5064493;28;20015;-95
2024/04/21 05:48:37;;;;;;;2.65;1.90;;;;;;;10.65;52.87;98802.53;5035973;28;20074;-95
2024/04/21 05:51:06;;;;;;;3.10;2.10;;;;;;;10.71;52.93;98824.84;5011067;28;19998;-95
2024/04/21 05:53:32;;;;;;;3.08;1.90;;;;;;;10.53;52.14;98794.03;5036785;28;20007;-96
2024/04/21 05:55:58;;;;;;;5.07;2.22;;;;;;;10.71;52.16;98798.72;5060987;28;19999;-93
2024/04/21 05:58:24;;;;;;;3.67;1.92;;;;;;;10.72;52.21;98810.28;5035933;28;20385;-94
2024/04/21 06:00:50;;;;;;;3.72;2.00;;;;;;;10.82;51.58;98793.22;5036731;28;19999;-95
2024/04/21 06:03:18;;;;;;;3.17;1.60;;;;;;;10.99;50.68;98815.13;5036648;28;20023;-95
2024/04/21 06:05:47;;;;;;;3.97;2.80;;;;;;;11.15;51.01;98812.31;5037226;28;20022;-94
2024/04/21 06:08:12;;;;;;;3.22;2.17;;;;;;;11.06;50.82;98802.16;5038448;28;20017;-94
2024/04/21 06:10:38;;;;;;;3.22;2.10;;;;;;;11.29;51.27;98821.31;5036789;28;20010;-96
2024/04/21 06:13:06;;;;;;;3.95;1.90;;;;;;;11.35;50.65;98812.06;5037117;28;19998;-94
2024/04/21 06:15:38;;;;;;;5.82;2.50;;;;;;;11.30;50.72;98795.94;5036559;28;20038;-94
2024/04/21 06:18:04;;;;;;;;;;;;;;;11.55;51.57;98823.69;5036662;28;20002;-95
2024/04/21 06:20:32;;;;;;;2.83;1.95;;;;;;;11.50;51.09;98801.09;5052832;28;19979;-93
2024/04/21 06:22:58;;;;;;;4.68;2.17;;;;;;;11.64;51.84;98819.25;5067973;28;20078;-92
2024/04/21 06:25:29;;;;;;;4.32;2.20;;;;;;;11.81;50.46;98810.72;5068829;28;20001;-94
2024/04/21 06:27:55;;;;;;;5.87;2.03;;;;;;;11.92;51.16;98802.19;5067495;28;20006;-95
2024/04/21 06:30:32;;;;;;;1.95;1.60;;;;;;;11.90;50.15;98792.78;5092833;28;20021;-96
2024/04/21 06:32:58;;;;;;;4.05;1.80;;;;;;;12.19;49.62;98802.63;5093761;28;20082;-95
2024/04/21 06:35:27;;;;;;;2.20;1.65;;;;;;;12.36;48.98;98808.31;5067446;28;20014;-95
2024/04/21 06:37:55;;;;;;;2.63;1.70;;;;;;;12.39;48.46;98802.31;5068786;28;20006;-95
2024/04/21 06:40:23;;;;;;;2.53;1.60;;;;;;;12.63;48.02;98809.50;5067554;28;20014;-94
2024/04/21 06:42:50;;;;;;;4.18;1.80;;;;;;;12.87;47.63;98809.38;5068799;28;20013;-94
2024/04/21 06:45:16;;;;;;;4.18;1.52;;;;;;;12.93;47.75;98805.47;5095430;28;20009;-95
2024/04/21 06:47:43;;;;;;;5.35;1.75;;;;;;;13.14;47.60;98808.59;5067707;28;19998;-96
2024/04/21 06:50:09;;;;;;;5.20;1.65;;;;;;;13.26;47.42;98817.03;5068104;28;20013;-96
2024/04/21 06:52:43;;;;;;;3.38;1.80;;;;;;;13.25;47.58;98782.97;5068938;28;20430;-94
2024/04/21 06:55:09;;;;;;;6.55;4.13;;;;;;;13.36;47.67;98801.72;5097227;28;20325;-95
2024/04/21 06:57:35;;;;;;;2.10;1.83;;;;;;;13.54;47.61;98807.00;5068072;28;20002;-93
2024/04/21 07:03:41;;;;;;;2.65;2.00;;;;;;;13.59;46.83;98797.19;5132629;27;20047;-96
2024/04/21 07:06:09;;;;;;;7.80;1.70;;;;;;;13.82;46.33;98788.06;5106938;28;19998;-95
2024/04/21 07:08:46;;;;;;;2.63;2.05;;;;;;;13.91;45.32;98782.72;5103607;28;20002;-94
2024/04/21 07:11:19;;;;;;;3.78;1.92;;;;;;;14.29;45.55;98812.16;5099645;28;20026;-93
2024/04/21 07:20:24;;;;;;;3.80;2.40;;;;;;;14.48;45.19;98793.81;4951691;28;20008;-95
2024/04/21 07:23:06;;;;;;;6.38;2.35;;;;;;;14.67;44.56;98804.50;4983935;28;20003;-95
2024/04/21 07:25:32;;;;;;;3.47;2.55;;;;;;;14.72;44.76;98800.88;5011393;28;19988;-96
2024/04/21 07:28:04;;;;;;;3.10;2.30;;;;;;;14.97;44.96;98809.47;4980570;28;20011;-95
2024/04/21 07:30:35;;;;;;;3.97;1.95;;;;;;;14.92;44.33;98786.78;4985859;28;20014;-96
2024/04/21 07:33:02;;;;;;;4.07;2.28;;;;;;;14.93;44.25;98798.44;4984301;28;20000;-94
2024/04/21 07:35:31;;;;;;;7.78;2.25;;;;;;;15.08;44.49;98805.34;4973492;28;20004;-95
2024/04/21 07:37:56;;;;;;;4.88;2.20;;;;;;;15.17;44.07;98795.38;4969731;28;20009;-95
2024/04/21 07:40:28;;;;;;;3.92;2.00;;;;;;;15.39;43.40;98809.94;5034280;28;19994;-95
2024/04/21 07:42:56;;;;;;;;;;;;;;;15.55;42.25;98816.53;5035206;28;20015;-94
2024/04/21 07:45:22;;;;;;;2.42;1.90;;;;;;;15.42;43.12;98795.75;5061508;28;20271;-95
2024/04/21 07:48:04;;;;;;;2.95;1.75;;;;;;;15.57;43.94;98823.25;5036496;28;20003;-95
2024/04/21 07:50:34;;;;;;;2.40;1.70;;;;;;;15.33;42.58;98810.06;5036705;28;20473;-94
2024/04/21 07:52:59;;;;;;;3.10;1.23;;;;;;;15.09;42.64;98783.34;5012041;28;20002;-96
2024/04/21 07:55:28;;;;;;;2.17;1.58;;;;;;;15.29;43.09;98819.97;5010391;28;20002;-96
2024/04/21 07:57:54;;;;;;;3.85;1.60;;;;;;;15.25;43.15;98777.50;5015444;28;20104;-94
2024/04/21 08:00:23;;;;;;;4.07;2.10;;;;;;;15.58;43.14;98815.91;5012556;28;20007;-95
2024/04/21 08:03:08;;;;;;;5.80;1.52;;;;;;;15.63;41.98;98802.19;5012924;28;20052;-96
2024/04/21 08:05:36;;;;;;;8.88;1.80;;;;;;;15.89;42.41;98815.03;5039877;28;20060;-95
2024/04/21 08:08:05;;;;;;;1.90;1.40;;;;;;;15.86;41.15;98788.53;5037721;28;20320;-96
2024/04/21 08:10:34;;;;;;;1.98;1.40;;;;;;;16.06;41.38;98804.22;5012462;28;20007;-94
2024/04/21 08:13:09;;;;;;;4.35;1.67;;;;;;;15.72;40.09;98799.53;5012193;28;20013;-94
2024/04/21 08:15:37;;;;;;;5.75;1.20;;;;;;;15.72;41.37;98794.09;5014670;28;20010;-96
2024/04/21 08:18:06;;;;;;;3.17;1.30;;;;;;;16.03;41.34;98802.13;5034851;28;19998;-95
2024/04/21 08:20:50;;;;;;;2.88;1.40;;;;;;;16.20;40.72;98812.19;5057320;28;20011;-95
2024/04/21 08:23:16;;;;;;;1.60;1.10;;;;;;;16.32;40.56;98803.41;5077500;28;20025;-95
2024/04/21 08:25:48;;;;;;;2.50;1.20;;;;;;;16.39;40.17;98806.44;5097198;28;20078;-94
2024/04/21 08:28:14;;;;;;;4.82;1.60;;;;;;;16.54;39.48;98813.31;5069767;28;20010;-94
2024/04/21 08:31:02;;;;;;;2.35;1.73;;;;;;;16.84;39.10;98808.00;5068028;28;20009;-95
2024/04/21 08:33:29;;;;;;;2.20;1.20;;;;;;;16.99;38.30;98812.13;5099885;28;20001;-94
2024/04/21 08:36:05;;;;;;;3.47;1.42;;;;;;;17.14;37.17;98823.28;5096628;28;20055;-96
2024/04/21 08:38:32;;;;;;;1.70;1.13;;;;;;;16.90;37.55;98798.56;5070869;28;20008;-93
2024/04/21 08:40:58;;;;;;;2.92;1.10;;;;;;;16.88;37.47;98823.34;5096821;28;19997;-96
2024/04/21 08:43:25;;;;;;;2.08;1.02;;;;;;;16.83;37.23;98814.53;5094624;28;19998;-94
2024/04/21 08:45:55;;;;;;;7.57;1.30;;;;;;;16.90;37.56;98829.25;5068202;28;20317;-96
2024/04/21 08:48:25;;;;;;;1.67;1.15;;;;;;;17.03;36.26;98829.38;5069311;28;20520;-95
2024/04/21 08:50:52;;;;;;;4.07;1.02;;;;;;;16.92;35.75;98799.03;5071963;28;20018;-94
2024/04/21 08:53:18;;;;;;;4.55;3.03;;;;;;;16.97;37.13;98817.88;5067921;28;20010;-95
2024/04/21 08:55:48;;;;;;;2.25;1.20;;;;;;;16.86;37.24;98811.19;5069324;28;20002;-95
2024/04/21 08:58:18;;;;;;;1.88;1.10;;;;;;;16.87;37.34;98821.75;5069092;28;20002;-95
2024/04/21 09:00:47;;;;;;;1.50;1.10;;;;;;;16.89;38.28;98824.13;5072400;28;20005;-96
2024/04/21 09:03:14;;;;;;;1.55;1.00;;;;;;;16.95;37.25;98806.53;5069665;28;20006;-93
2024/04/21 09:05:42;;;;;;;2.08;1.30;;;;;;;17.01;37.20;98824.25;5094158;28;19998;-94
2024/04/21 09:08:08;;;;;;;3.47;1.90;;;;;;;16.93;37.88;98817.75;5093831;28;20002;-95
2024/04/21 09:10:37;;;;;;;2.08;1.30;;;;;;;16.98;38.34;98819.50;5069338;28;20012;-93
2024/04/21 09:13:06;;;;;;;1.25;0.90;;;;;;;16.92;35.98;98812.63;5096553;28;20001;-94
2024/04/21 09:15:32;;;;;;;2.88;1.15;;;;;;;17.19;35.63;98805.97;5095247;28;20002;-93
2024/04/21 09:18:00;;;;;;;1.98;1.40;;;;;;;17.43;36.43;98807.28;5094009;28;20010;-94
2024/04/21 09:20:26;;;;;;;2.22;1.40;;;;;;;17.51;36.39;98815.41;5119766;27;20006;-95
2024/04/21 09:22:52;;;;;;;3.13;1.02;;;;;;;17.64;35.75;98812.78;5093423;28;20001;-95
2024/04/21 09:25:21;;;;;;;1.50;1.10;;;;;;;17.61;35.80;98816.19;5065964;28;20030;-93
2024/04/21 09:27:47;;;;;;;3.83;1.40;;;;;;;17.66;35.81;98805.09;5069151;28;20006;-94
2024/04/21 09:30:13;;;;;;;2.72;1.13;;;;;;;17.54;36.71;98803.09;5068162;28;19997;-93
2024/04/21 09:32:39;;;;;;;2.55;1.30;;;;;;;17.72;36.98;98804.59;5067539;28;20065;-94
2024/04/21 09:35:05;;;;;;;5.28;1.75;;;;;;;17.70;36.56;98786.97;5068201;28;19998;-94
2024/04/21 09:44:17;;;;;;;3.28;1.27;;;;;;;17.63;35.71;98787.50;5124914;28;20004;-94
2024/04/21 09:46:43;;;;;;;1.50;0.93;;;;;;;17.62;34.88;98801.44;5070743;28;20038;-95
2024/04/21 09:49:09;;;;;;;1.60;1.10;;;;;;;17.20;35.21;98785.78;5069275;28;20001;-96
2024/04/21 09:51:35;;;;;;;2.08;1.35;;;;;;;16.97;35.70;98790.69;5069048;28;20052;-95
2024/04/21 09:54:01;;;;;;;1.40;1.10;;;;;;;16.70;35.74;98789.91;5069319;28;19998;-96
2024/04/21 09:56:53;;;;;;;4.28;1.30;;;;;;;16.96;37.17;98808.94;5073901;28;20010;-95
2024/04/21 09:59:21;;;;;;;4.32;1.27;;;;;;;16.99;36.83;98779.47;5106037;28;20069;-96
2024/04/21 10:01:48;;;;;;;3.95;1.00;;;;;;;17.23;36.74;98789.78;5067996;28;20005;-96
2024/04/21 10:04:20;;;;;;;2.45;1.40;;;;;;;17.35;36.53;98782.53;5069923;28;20017;-96
2024/04/21 10:06:48;;;;;;;3.25;1.35;;;;;;;17.46;35.51;98765.81;5122881;27;20021;-96
2024/04/21 10:09:15;;;;;;;2.10;1.40;;;;;;;17.43;36.65;98783.63;5094472;28;20029;-94
2024/04/21 10:11:44;;;;;;;3.70;1.60;;;;;;;17.34;36.93;98777.41;5069470;27;20035;-95
2024/04/21 10:14:10;;;;;;;5.97;1.20;;;;;;;17.33;37.38;98773.09;5070105;28;20002;-96
2024/04/21 10:16:41;;;;;;;3.67;1.40;;;;;;;17.34;37.21;98752.91;5069632;28;20058;-96
2024/04/21 10:19:20;;;;;;;1.73;1.13;;;;;;;17.34;38.34;98761.09;5072826;28;20026;-94
2024/04/21 10:21:46;;;;;;;2.95;1.23;;;;;;;17.37;37.23;98765.88;5124145;28;20361;-96
2024/04/21 10:24:14;;;;;;;1.55;1.10;;;;;;;17.34;36.80;98772.75;5070259;28;19997;-96
2024/04/21 10:26:43;;;;;;;1.27;1.08;;;;;;;17.24;35.18;98754.06;5069551;28;20013;-96
2024/04/21 10:29:12;;;;;;;2.17;1.15;;;;;;;16.89;35.57;98753.44;5072036;28;20022;-96
2024/04/21 10:31:38;;;;;;;4.32;1.65;;;;;;;16.76;36.18;98747.84;5071367;28;20005;-96
2024/04/21 10:34:25;;;;;;;2.10;1.33;;;;;;;17.02;36.91;98751.66;5069631;28;20345;-96
2024/04/21 10:36:52;;;;;;;2.28;0.93;;;;;;;17.29;36.57;98758.56;5073891;28;20002;-96
2024/04/21 10:39:24;;;;;;;1.38;1.00;;;;;;;17.56;35.62;98754.56;5069354;28;20064;-95
2024/04/21 10:41:53;;;;;;;2.25;1.30;;;;;;;17.57;35.05;98740.59;5070446;28;20009;-95
2024/04/21 10:44:20;;;;;;;1.60;1.20;;;;;;;17.77;34.91;98744.47;5098911;28;20006;-96
2024/04/21 10:46:48;;;;;;;2.45;1.30;;;;;;;17.74;35.63;98757.94;5093417;28;20002;-96
2024/04/21 10:49:14;;;;;;;2.35;1.20;;;;;;;17.67;34.63;98753.03;5070875;28;20002;-95
2024/04/21 10:51:39;;;;;;;2.83;1.40;;;;;;;17.64;35.47;98755.59;5070290;27;20055;-96
2024/04/21 10:54:11;;;;;;;2.10;1.45;;;;;;;17.72;35.37;98743.88;5096026;28;20396;-96
2024/04/21 10:56:41;;;;;;;4.93;1.10;;;;;;;17.80;35.37;98756.63;5069024;28;20002;-94
2024/04/21 10:59:09;;;;;;;2.95;0.95;;;;;;;17.67;35.66;98730.47;5095143;28;20013;-95
2024/04/21 11:01:38;;;;;;;2.92;1.20;;;;;;;17.52;35.24;98723.69;5066802;28;20002;-95
2024/04/21 11:04:11;;;;;;;1.70;1.00;;;;;;;17.56;34.71;98719.16;5068129;28;19990;-95
2024/04/21 11:06:40;;;;;;;1.77;1.00;;;;;;;17.46;34.30;98735.88;5069924;28;19998;-95
2024/04/21 11:09:09;;;;;;;2.63;1.35;;;;;;;17.66;34.13;98724.22;5094873;28;20021;-94
2024/04/21 11:11:37;;;;;;;2.33;1.20;;;;;;;17.98;33.50;98733.59;5067942;28;20452;-96
2024/04/21 11:14:04;;;;;;;3.17;1.00;;;;;;;18.28;33.32;98736.25;5068992;28;20327;-96
2024/04/21 11:16:30;;;;;;;3.63;1.13;;;;;;;18.35;32.96;98724.78;5095450;28;19998;-96
2024/04/21 11:18:57;;;;;;;2.97;1.02;;;;;;;18.03;33.11;98729.88;5067663;27;20004;-96
2024/04/21 11:21:24;;;;;;;1.92;1.30;;;;;;;17.79;34.68;98719.66;5068728;28;20014;-96
2024/04/21 11:23:50;;;;;;;1.67;0.93;;;;;;;17.86;33.86;98711.75;5068081;28;20022;-96
2024/04/21 11:26:16;;;;;;;1.30;0.93;;;;;;;18.00;33.68;98710.69;5067451;28;20005;-93
2024/04/21 11:28:45;;;;;;;1.58;0.95;;;;;;;18.24;34.31;98704.53;5094129;28;20074;-95
2024/04/21 11:31:11;;;;;;;3.00;1.08;;;;;;;18.59;33.26;98726.78;5067173;28;20006;-96
2024/04/21 11:33:37;;;;;;;3.25;1.15;;;;;;;18.79;33.73;98714.22;5068412;28;20002;-96
2024/04/21 11:36:04;;;;;;;2.20;1.10;;;;;;;18.82;32.93;98710.03;5067733;28;20006;-95
2024/04/21 11:38:30;;;;;;;1.48;1.10;;;;;;;18.78;33.90;98705.25;5068445;28;20010;-93
2024/04/21 11:40:56;;;;;;;2.75;1.00;;;;;;;18.83;34.11;98700.72;5093655;28;20002;-94
2024/04/21 11:43:22;;;;;;;1.10;1.00;;;;;;;18.86;32.99;98691.84;5093737;28;20014;-95
2024/04/21 11:45:53;;;;;;;1.63;1.10;;;;;;;18.58;34.44;98689.75;5092894;28;20029;-96
2024/04/21 11:48:18;;;;;;;2.03;0.98;;;;;;;18.50;34.80;98679.72;5066391;28;19998;-94
2024/04/21 11:50:44;;;;;;;2.88;1.05;;;;;;;18.55;34.60;98672.13;5093250;28;20012;-92
2024/04/21 11:53:11;;;;;;;4.13;1.65;;;;;;;18.65;35.40;98681.00;5068354;28;19998;-92
2024/04/21 11:55:39;;;;;;;2.47;1.20;;;;;;;18.48;34.52;98671.88;5067574;28;20002;-92
2024/04/21 11:58:07;;;;;;;2.65;1.45;;;;;;;18.37;35.62;98665.28;5095768;28;20030;-92
2024/04/21 12:00:33;;;;;;;1.85;1.35;;;;;;;18.29;35.46;98658.78;5069559;28;20026;-92
2024/04/21 12:03:00;;;;;;;2.05;1.50;;;;;;;18.33;35.27;98661.66;5070007;28;20055;-94
2024/04/21 12:05:26;;;;;;;3.05;1.65;;;;;;;18.26;34.66;98664.94;5096301;28;19998;-95
2024/04/21 12:07:52;;;;;;;7.50;1.55;;;;;;;18.19;35.46;98678.28;5069864;28;20005;-94
2024/04/21 12:10:17;;;;;;;2.20;1.33;;;;;;;17.80;35.34;98658.59;5097054;28;20535;-95
2024/04/21 12:12:44;;;;;;;4.15;2.70;;;;;;;17.60;35.36;98660.22;5068837;28;20005;-96
2024/04/21 12:15:09;;;;;;;4.05;1.33;;;;;;;17.78;35.24;98663.56;5095804;28;20001;-94
2024/04/21 12:17:35;;;;;;;7.85;1.70;;;;;;;17.94;34.81;98652.91;5070361;28;20078;-95
2024/04/21 12:20:04;;;;;;;2.15;1.77;;;;;;;18.03;35.83;98647.34;5069507;28;20433;-96
2024/04/21 12:22:30;;;;;;;3.45;1.70;;;;;;;17.89;35.62;98632.13;5071030;28;20017;-95